Sunday, February 1, 2015, 7:10 PM EST

KDYL, Doylestown Airport

Location: Doylestown, PA, United States Lat: 40.333
Local Time: 7:10 PM EST ( 0:10 GMT) Lon: -75.117
Time Zone: US/Eastern Elev: 393 ft

Show me the last for .
Show Decoded

2015-02-01 18:54 METAR KDYL 012354Z AUTO 00000KT 7SM -SN FEW024 OVC035 M01/M02 A3007 RMK AO2
                 SNB04 SLP192 P0000 60000 T10061022 10017 21006 58012 =
2015-02-01 18:43 METAR KDYL 012343Z AUTO 00000KT 7SM -SN FEW024 OVC035 M01/M02 A3008 RMK AO2
                 SNB04 P0000 T10061022 =
2015-02-01 18:12 METAR KDYL 012312Z AUTO 00000KT 7SM -SN OVC027 00/M03 A3010 RMK AO2 SNB04 P0000
                 T00001033 =
2015-02-01 17:54 METAR KDYL 012254Z AUTO 00000KT 10SM OVC033 01/M04 A3010 RMK AO2 SLP202
                 T00061039 =
2015-02-01 16:54 METAR KDYL 012154Z AUTO 00000KT 10SM OVC042 01/M04 A3010 RMK AO2 SLP201
                 T00111044 =
2015-02-01 15:54 METAR KDYL 012054Z AUTO 00000KT 10SM BKN045 OVC055 01/M04 A3011 RMK AO2 SLP203
                 T00111044 58017 =
2015-02-01 14:54 METAR KDYL 011954Z AUTO 24006KT 10SM FEW038 BKN045 OVC060 01/M04 A3013 RMK AO2
                 SLP213 T00111044 =
2015-02-01 13:54 METAR KDYL 011854Z AUTO 25003KT 10SM OVC055 01/M06 A3014 RMK AO2 SLP215
                 T00111056 =
2015-02-01 12:54 METAR KDYL 011754Z AUTO 27006KT 10SM OVC050 01/M06 A3016 RMK AO2 SLP222
                 T00111061 10011 21050 58022 =
2015-02-01 11:54 METAR KDYL 011654Z AUTO 27005KT 10SM BKN050 01/M07 A3019 RMK AO2 SLP233
                 T00061072 =
2015-02-01 10:54 METAR KDYL 011554Z AUTO 26004KT 10SM FEW047 SCT065 01/M07 A3021 RMK AO2 SLP239
                 T00061072 =
2015-02-01 09:54 METAR KDYL 011454Z AUTO 23004KT 10SM OVC049 M01/M08 A3022 RMK AO2 SLP245
                 T10111083 51004 =
2015-02-01 08:54 METAR KDYL 011354Z AUTO 00000KT 10SM OVC046 M03/M09 A3022 RMK AO2 SLP243
                 T10331094 =
2015-02-01 07:54 METAR KDYL 011254Z AUTO 24004KT 10SM OVC046 M04/M10 A3022 RMK AO2 SLP243
                 T10441100 =
2015-02-01 06:54 METAR KDYL 011154Z AUTO 24004KT 10SM OVC047 M05/M11 A3021 RMK AO2 SLP240
                 T10501106 11050 21089 50005 =
2015-02-01 04:54 METAR KDYL 010954Z AUTO 24005KT 10SM OVC045 M06/M11 A3021 RMK AO2 SLP241
                 T10561111 =
2015-02-01 03:54 METAR KDYL 010854Z AUTO 24004KT 10SM OVC046 M06/M12 A3019 RMK AO2 SLP236
                 T10611117 58005 =
2015-02-01 02:54 METAR KDYL 010754Z AUTO 24004KT 10SM OVC042 M07/M12 A3020 RMK AO2 SLP239
                 T10671122 =
2015-02-01 01:54 METAR KDYL 010654Z AUTO 22006KT 10SM BKN040 M07/M13 A3020 RMK AO2 SLP239
                 T10721133 =
2015-02-01 00:54 METAR KDYL 010554Z AUTO 22004KT 10SM CLR M09/M14 A3021 RMK AO2 SLP242 T10891139
                 11061 21089 52002 =
2015-01-31 23:54 METAR KDYL 010454Z AUTO 26003KT 10SM CLR M09/M14 A3021 RMK AO2 SLP242 T10891139
                 410391128 =
2015-01-31 22:54 METAR KDYL 010354Z AUTO 24003KT 10SM CLR M08/M14 A3021 RMK AO2 SLP242 T10831139
                 =
2015-01-31 21:54 METAR KDYL 010254Z AUTO 26003KT 10SM CLR M08/M14 A3020 RMK AO2 SLP241 T10781139
                 50004 =
2015-01-31 20:54 METAR KDYL 010154Z AUTO 23003KT 10SM CLR M07/M14 A3021 RMK AO2 SLP241 T10721144
                 =
2015-01-31 19:54 METAR KDYL 010054Z AUTO VRB03KT 10SM CLR M07/M14 A3021 RMK AO2 SLP243 T10671144
                 =

Support USWX by starting your Amazon purchase here.